Terminal Aerodrome Forecast
Issued by NWS

Home | Current Version | Previous Version | Text Only | Print | Product List | Glossary Off
Versions: 1 2 3 4 5 6 7 8 9 10 11 12 13 14

749
FTUS43 KICT 212331
TAFHUT
TAF
KHUT 212331Z 2200/2224 17018G25KT P6SM SKC
     FM220100 17014KT P6SM SCT200
     FM221500 19016G25KT P6SM FEW250=

USA.gov is the U.S. government's official web portal to all federal, state and local government web resources and services.